sensor_id;sensor_type;location;lat;lon;timestamp;P1;durP1;ratioP1;P2;durP2;ratioP2
56730;SDS011;42613;47.424;8.560;2022-10-16T00:01:08;9.02;;;3.15;;
56730;SDS011;42613;47.424;8.560;2022-10-16T00:03:36;7.25;;;2.90;;
56730;SDS011;42613;47.424;8.560;2022-10-16T00:06:02;6.25;;;2.92;;
56730;SDS011;42613;47.424;8.560;2022-10-16T00:08:28;7.95;;;2.70;;
56730;SDS011;42613;47.424;8.560;2022-10-16T00:11:04;5.15;;;3.33;;
56730;SDS011;42613;47.424;8.560;2022-10-16T00:13:30;6.35;;;3.47;;
56730;SDS011;42613;47.424;8.560;2022-10-16T00:15:56;9.32;;;3.15;;
56730;SDS011;42613;47.424;8.560;2022-10-16T00:18:23;6.25;;;2.92;;
56730;SDS011;42613;47.424;8.560;2022-10-16T00:20:49;10.93;;;3.10;;
56730;SDS011;42613;47.424;8.560;2022-10-16T00:23:14;8.13;;;3.20;;
56730;SDS011;42613;47.424;8.560;2022-10-16T00:25:39;11.20;;;3.00;;
56730;SDS011;42613;47.424;8.560;2022-10-16T00:28:05;5.15;;;2.78;;
56730;SDS011;42613;47.424;8.560;2022-10-16T00:30:30;7.03;;;2.80;;
56730;SDS011;42613;47.424;8.560;2022-10-16T00:32:56;5.63;;;2.55;;
56730;SDS011;42613;47.424;8.560;2022-10-16T00:35:21;17.35;;;2.95;;
56730;SDS011;42613;47.424;8.560;2022-10-16T00:37:47;5.60;;;2.70;;
56730;SDS011;42613;47.424;8.560;2022-10-16T00:40:12;8.75;;;2.70;;
56730;SDS011;42613;47.424;8.560;2022-10-16T00:42:37;11.90;;;3.17;;
56730;SDS011;42613;47.424;8.560;2022-10-16T00:45:03;3.38;;;2.33;;
56730;SDS011;42613;47.424;8.560;2022-10-16T00:47:31;6.25;;;2.85;;
56730;SDS011;42613;47.424;8.560;2022-10-16T00:50:11;2.92;;;2.20;;
56730;SDS011;42613;47.424;8.560;2022-10-16T00:52:41;6.05;;;2.78;;
56730;SDS011;42613;47.424;8.560;2022-10-16T00:55:12;6.07;;;3.10;;
56730;SDS011;42613;47.424;8.560;2022-10-16T00:57:38;4.22;;;2.95;;
56730;SDS011;42613;47.424;8.560;2022-10-16T01:00:05;7.15;;;2.60;;
56730;SDS011;42613;47.424;8.560;2022-10-16T01:02:33;14.35;;;2.63;;
56730;SDS011;42613;47.424;8.560;2022-10-16T01:05:01;5.45;;;2.55;;
56730;SDS011;42613;47.424;8.560;2022-10-16T01:10:32;5.25;;;2.65;;
56730;SDS011;42613;47.424;8.560;2022-10-16T01:13:20;10.38;;;2.67;;
56730;SDS011;42613;47.424;8.560;2022-10-16T01:15:58;6.75;;;2.83;;
56730;SDS011;42613;47.424;8.560;2022-10-16T01:18:37;6.57;;;3.45;;
56730;SDS011;42613;47.424;8.560;2022-10-16T01:29:48;9.20;;;3.53;;
56730;SDS011;42613;47.424;8.560;2022-10-16T01:35:02;17.17;;;6.80;;
56730;SDS011;42613;47.424;8.560;2022-10-16T01:40:12;3.53;;;2.67;;
56730;SDS011;42613;47.424;8.560;2022-10-16T01:42:41;9.88;;;3.20;;
56730;SDS011;42613;47.424;8.560;2022-10-16T01:47:38;7.75;;;2.20;;
56730;SDS011;42613;47.424;8.560;2022-10-16T01:50:06;8.90;;;3.00;;
56730;SDS011;42613;47.424;8.560;2022-10-16T01:52:37;7.30;;;2.63;;
56730;SDS011;42613;47.424;8.560;2022-10-16T01:55:05;4.32;;;2.42;;
56730;SDS011;42613;47.424;8.560;2022-10-16T01:57:34;5.35;;;2.78;;
56730;SDS011;42613;47.424;8.560;2022-10-16T02:00:04;11.70;;;3.15;;
56730;SDS011;42613;47.424;8.560;2022-10-16T02:02:34;9.18;;;2.75;;
56730;SDS011;42613;47.424;8.560;2022-10-16T02:05:04;5.72;;;2.60;;
56730;SDS011;42613;47.424;8.560;2022-10-16T02:07:37;5.45;;;2.78;;
56730;SDS011;42613;47.424;8.560;2022-10-16T02:10:03;4.05;;;2.95;;
56730;SDS011;42613;47.424;8.560;2022-10-16T02:12:30;10.63;;;3.30;;
56730;SDS011;42613;47.424;8.560;2022-10-16T02:14:58;6.03;;;2.80;;
56730;SDS011;42613;47.424;8.560;2022-10-16T02:17:23;5.97;;;2.80;;
56730;SDS011;42613;47.424;8.560;2022-10-16T02:19:50;3.65;;;2.60;;
56730;SDS011;42613;47.424;8.560;2022-10-16T02:22:25;9.32;;;2.80;;
56730;SDS011;42613;47.424;8.560;2022-10-16T02:24:58;4.53;;;2.65;;
56730;SDS011;42613;47.424;8.560;2022-10-16T02:32:39;3.35;;;2.63;;
56730;SDS011;42613;47.424;8.560;2022-10-16T02:35:07;9.05;;;2.58;;
56730;SDS011;42613;47.424;8.560;2022-10-16T02:37:34;17.42;;;3.53;;
56730;SDS011;42613;47.424;8.560;2022-10-16T02:40:02;5.32;;;2.55;;
56730;SDS011;42613;47.424;8.560;2022-10-16T02:42:36;11.35;;;3.22;;
56730;SDS011;42613;47.424;8.560;2022-10-16T02:45:03;2.85;;;2.40;;
56730;SDS011;42613;47.424;8.560;2022-10-16T02:47:29;6.28;;;3.35;;
56730;SDS011;42613;47.424;8.560;2022-10-16T02:49:54;4.88;;;2.60;;
56730;SDS011;42613;47.424;8.560;2022-10-16T02:52:20;3.75;;;2.92;;
56730;SDS011;42613;47.424;8.560;2022-10-16T02:54:45;5.88;;;2.95;;
56730;SDS011;42613;47.424;8.560;2022-10-16T02:57:11;5.95;;;3.25;;
56730;SDS011;42613;47.424;8.560;2022-10-16T02:59:36;15.40;;;3.75;;
56730;SDS011;42613;47.424;8.560;2022-10-16T03:02:02;7.40;;;2.80;;
56730;SDS011;42613;47.424;8.560;2022-10-16T03:04:28;4.97;;;3.13;;
56730;SDS011;42613;47.424;8.560;2022-10-16T03:06:53;4.65;;;2.60;;
56730;SDS011;42613;47.424;8.560;2022-10-16T03:09:18;9.00;;;2.92;;
56730;SDS011;42613;47.424;8.560;2022-10-16T03:11:44;5.07;;;2.78;;
56730;SDS011;42613;47.424;8.560;2022-10-16T03:14:09;3.63;;;2.90;;
56730;SDS011;42613;47.424;8.560;2022-10-16T03:16:34;4.10;;;3.15;;
56730;SDS011;42613;47.424;8.560;2022-10-16T03:19:00;11.43;;;2.92;;
56730;SDS011;42613;47.424;8.560;2022-10-16T03:21:25;5.95;;;3.05;;
56730;SDS011;42613;47.424;8.560;2022-10-16T03:23:50;3.50;;;2.75;;
56730;SDS011;42613;47.424;8.560;2022-10-16T03:26:16;7.43;;;2.60;;
56730;SDS011;42613;47.424;8.560;2022-10-16T03:28:41;4.00;;;2.55;;
56730;SDS011;42613;47.424;8.560;2022-10-16T03:31:06;4.95;;;2.88;;
56730;SDS011;42613;47.424;8.560;2022-10-16T03:33:33;4.63;;;3.00;;
56730;SDS011;42613;47.424;8.560;2022-10-16T03:35:58;6.65;;;2.67;;
56730;SDS011;42613;47.424;8.560;2022-10-16T03:38:26;10.30;;;3.17;;
56730;SDS011;42613;47.424;8.560;2022-10-16T03:40:51;5.50;;;2.97;;
56730;SDS011;42613;47.424;8.560;2022-10-16T03:43:17;7.32;;;2.70;;
56730;SDS011;42613;47.424;8.560;2022-10-16T03:45:42;11.85;;;3.50;;
56730;SDS011;42613;47.424;8.560;2022-10-16T03:48:07;4.32;;;2.75;;
56730;SDS011;42613;47.424;8.560;2022-10-16T03:50:33;4.43;;;3.05;;
56730;SDS011;42613;47.424;8.560;2022-10-16T03:52:58;5.97;;;2.90;;
56730;SDS011;42613;47.424;8.560;2022-10-16T03:55:24;5.63;;;2.67;;
56730;SDS011;42613;47.424;8.560;2022-10-16T03:57:49;4.13;;;2.80;;
56730;SDS011;42613;47.424;8.560;2022-10-16T04:00:14;6.35;;;2.63;;
56730;SDS011;42613;47.424;8.560;2022-10-16T04:02:40;10.35;;;2.92;;
56730;SDS011;42613;47.424;8.560;2022-10-16T04:05:05;6.07;;;3.30;;
56730;SDS011;42613;47.424;8.560;2022-10-16T04:07:31;15.48;;;3.33;;
56730;SDS011;42613;47.424;8.560;2022-10-16T04:09:57;3.03;;;2.70;;
56730;SDS011;42613;47.424;8.560;2022-10-16T04:12:23;5.57;;;2.92;;
56730;SDS011;42613;47.424;8.560;2022-10-16T04:14:49;7.28;;;3.80;;
56730;SDS011;42613;47.424;8.560;2022-10-16T04:17:14;5.45;;;2.95;;
56730;SDS011;42613;47.424;8.560;2022-10-16T04:19:39;7.95;;;2.63;;
56730;SDS011;42613;47.424;8.560;2022-10-16T04:22:05;5.75;;;2.92;;
56730;SDS011;42613;47.424;8.560;2022-10-16T04:24:30;5.53;;;2.90;;
56730;SDS011;42613;47.424;8.560;2022-10-16T04:26:55;5.00;;;2.90;;
56730;SDS011;42613;47.424;8.560;2022-10-16T04:29:21;7.40;;;3.05;;
56730;SDS011;42613;47.424;8.560;2022-10-16T04:31:46;2.90;;;2.47;;
56730;SDS011;42613;47.424;8.560;2022-10-16T04:34:12;8.13;;;2.75;;
56730;SDS011;42613;47.424;8.560;2022-10-16T04:36:37;8.23;;;3.25;;
56730;SDS011;42613;47.424;8.560;2022-10-16T04:39:03;3.40;;;2.53;;
56730;SDS011;42613;47.424;8.560;2022-10-16T04:41:28;8.18;;;2.97;;
56730;SDS011;42613;47.424;8.560;2022-10-16T04:43:53;9.27;;;2.85;;
56730;SDS011;42613;47.424;8.560;2022-10-16T04:46:19;3.80;;;3.20;;
56730;SDS011;42613;47.424;8.560;2022-10-16T04:48:44;6.72;;;3.08;;
56730;SDS011;42613;47.424;8.560;2022-10-16T04:51:09;4.38;;;2.85;;
56730;SDS011;42613;47.424;8.560;2022-10-16T04:53:35;2.92;;;2.60;;
56730;SDS011;42613;47.424;8.560;2022-10-16T04:56:01;4.78;;;2.92;;
56730;SDS011;42613;47.424;8.560;2022-10-16T04:58:27;4.97;;;2.92;;
56730;SDS011;42613;47.424;8.560;2022-10-16T05:00:52;4.28;;;2.60;;
56730;SDS011;42613;47.424;8.560;2022-10-16T05:03:18;3.90;;;2.92;;
56730;SDS011;42613;47.424;8.560;2022-10-16T05:05:43;11.05;;;2.50;;
56730;SDS011;42613;47.424;8.560;2022-10-16T05:08:10;9.63;;;4.00;;
56730;SDS011;42613;47.424;8.560;2022-10-16T05:10:36;7.15;;;3.15;;
56730;SDS011;42613;47.424;8.560;2022-10-16T05:13:02;6.63;;;2.40;;
56730;SDS011;42613;47.424;8.560;2022-10-16T05:15:27;6.90;;;2.88;;
56730;SDS011;42613;47.424;8.560;2022-10-16T05:17:53;4.50;;;2.60;;
56730;SDS011;42613;47.424;8.560;2022-10-16T05:20:19;4.97;;;2.65;;
56730;SDS011;42613;47.424;8.560;2022-10-16T05:22:44;4.75;;;2.72;;
56730;SDS011;42613;47.424;8.560;2022-10-16T05:25:10;18.05;;;5.55;;
56730;SDS011;42613;47.424;8.560;2022-10-16T05:27:36;7.32;;;2.65;;
56730;SDS011;42613;47.424;8.560;2022-10-16T05:30:01;2.88;;;2.40;;
56730;SDS011;42613;47.424;8.560;2022-10-16T05:32:27;5.10;;;2.05;;
56730;SDS011;42613;47.424;8.560;2022-10-16T05:34:52;6.53;;;2.38;;
56730;SDS011;42613;47.424;8.560;2022-10-16T05:37:17;9.82;;;2.28;;
56730;SDS011;42613;47.424;8.560;2022-10-16T05:39:43;3.97;;;2.20;;
56730;SDS011;42613;47.424;8.560;2022-10-16T05:42:08;2.40;;;2.13;;
56730;SDS011;42613;47.424;8.560;2022-10-16T05:44:33;6.55;;;2.47;;
56730;SDS011;42613;47.424;8.560;2022-10-16T05:46:59;8.80;;;2.40;;
56730;SDS011;42613;47.424;8.560;2022-10-16T05:49:24;6.32;;;2.33;;
56730;SDS011;42613;47.424;8.560;2022-10-16T05:51:49;7.97;;;2.83;;
56730;SDS011;42613;47.424;8.560;2022-10-16T05:54:14;2.85;;;2.05;;
56730;SDS011;42613;47.424;8.560;2022-10-16T05:56:40;5.28;;;2.80;;
56730;SDS011;42613;47.424;8.560;2022-10-16T05:59:05;9.07;;;2.80;;
56730;SDS011;42613;47.424;8.560;2022-10-16T06:01:31;4.97;;;2.28;;
56730;SDS011;42613;47.424;8.560;2022-10-16T06:03:57;2.70;;;2.47;;
56730;SDS011;42613;47.424;8.560;2022-10-16T06:06:24;3.78;;;3.03;;
56730;SDS011;42613;47.424;8.560;2022-10-16T06:08:52;5.82;;;2.55;;
56730;SDS011;42613;47.424;8.560;2022-10-16T06:11:25;7.20;;;2.50;;
56730;SDS011;42613;47.424;8.560;2022-10-16T06:13:53;4.78;;;2.30;;
56730;SDS011;42613;47.424;8.560;2022-10-16T06:16:23;3.50;;;2.40;;
56730;SDS011;42613;47.424;8.560;2022-10-16T06:18:50;7.68;;;2.60;;
56730;SDS011;42613;47.424;8.560;2022-10-16T06:21:17;4.60;;;2.15;;
56730;SDS011;42613;47.424;8.560;2022-10-16T06:23:44;5.43;;;2.65;;
56730;SDS011;42613;47.424;8.560;2022-10-16T06:26:11;2.97;;;2.10;;
56730;SDS011;42613;47.424;8.560;2022-10-16T06:28:38;3.40;;;2.40;;
56730;SDS011;42613;47.424;8.560;2022-10-16T06:31:04;7.13;;;2.60;;
56730;SDS011;42613;47.424;8.560;2022-10-16T06:33:31;4.03;;;2.40;;
56730;SDS011;42613;47.424;8.560;2022-10-16T06:36:00;10.10;;;2.60;;
56730;SDS011;42613;47.424;8.560;2022-10-16T06:38:27;11.13;;;2.75;;
56730;SDS011;42613;47.424;8.560;2022-10-16T06:40:53;6.57;;;2.58;;
56730;SDS011;42613;47.424;8.560;2022-10-16T06:43:19;7.10;;;2.28;;
56730;SDS011;42613;47.424;8.560;2022-10-16T06:45:49;19.25;;;2.72;;
56730;SDS011;42613;47.424;8.560;2022-10-16T06:48:16;4.43;;;2.38;;
56730;SDS011;42613;47.424;8.560;2022-10-16T06:50:41;5.97;;;2.60;;
56730;SDS011;42613;47.424;8.560;2022-10-16T06:53:06;8.93;;;2.33;;
56730;SDS011;42613;47.424;8.560;2022-10-16T06:55:32;8.27;;;2.78;;
56730;SDS011;42613;47.424;8.560;2022-10-16T06:57:57;4.82;;;2.70;;
56730;SDS011;42613;47.424;8.560;2022-10-16T07:00:22;4.15;;;2.75;;
56730;SDS011;42613;47.424;8.560;2022-10-16T07:02:47;3.42;;;2.35;;
56730;SDS011;42613;47.424;8.560;2022-10-16T07:05:13;5.32;;;2.83;;
56730;SDS011;42613;47.424;8.560;2022-10-16T07:07:38;6.40;;;2.63;;
56730;SDS011;42613;47.424;8.560;2022-10-16T07:10:04;6.57;;;2.53;;
56730;SDS011;42613;47.424;8.560;2022-10-16T07:12:29;4.72;;;2.50;;
56730;SDS011;42613;47.424;8.560;2022-10-16T07:14:55;10.23;;;2.67;;
56730;SDS011;42613;47.424;8.560;2022-10-16T07:17:21;6.70;;;2.88;;
56730;SDS011;42613;47.424;8.560;2022-10-16T07:19:46;9.18;;;3.08;;
56730;SDS011;42613;47.424;8.560;2022-10-16T07:22:12;5.28;;;3.15;;
56730;SDS011;42613;47.424;8.560;2022-10-16T07:24:37;13.52;;;3.92;;
56730;SDS011;42613;47.424;8.560;2022-10-16T07:27:02;6.72;;;3.70;;
56730;SDS011;42613;47.424;8.560;2022-10-16T07:29:28;5.93;;;3.78;;
56730;SDS011;42613;47.424;8.560;2022-10-16T07:31:53;11.40;;;4.05;;
56730;SDS011;42613;47.424;8.560;2022-10-16T07:34:19;6.03;;;3.88;;
56730;SDS011;42613;47.424;8.560;2022-10-16T07:36:50;6.22;;;4.18;;
56730;SDS011;42613;47.424;8.560;2022-10-16T07:39:16;5.28;;;3.83;;
56730;SDS011;42613;47.424;8.560;2022-10-16T07:41:42;15.73;;;4.10;;
56730;SDS011;42613;47.424;8.560;2022-10-16T07:44:10;6.45;;;3.90;;
56730;SDS011;42613;47.424;8.560;2022-10-16T07:46:36;5.28;;;4.28;;
56730;SDS011;42613;47.424;8.560;2022-10-16T07:49:02;6.07;;;3.92;;
56730;SDS011;42613;47.424;8.560;2022-10-16T07:51:28;10.50;;;3.83;;
56730;SDS011;42613;47.424;8.560;2022-10-16T07:53:53;5.25;;;3.40;;
56730;SDS011;42613;47.424;8.560;2022-10-16T07:56:25;5.80;;;3.60;;
56730;SDS011;42613;47.424;8.560;2022-10-16T07:58:50;3.80;;;3.25;;
56730;SDS011;42613;47.424;8.560;2022-10-16T08:01:16;5.45;;;3.70;;
56730;SDS011;42613;47.424;8.560;2022-10-16T08:03:49;6.50;;;3.25;;
56730;SDS011;42613;47.424;8.560;2022-10-16T08:06:16;4.82;;;2.90;;
56730;SDS011;42613;47.424;8.560;2022-10-16T08:08:43;7.57;;;3.53;;
56730;SDS011;42613;47.424;8.560;2022-10-16T08:11:08;5.72;;;3.92;;
56730;SDS011;42613;47.424;8.560;2022-10-16T08:13:34;6.03;;;3.65;;
56730;SDS011;42613;47.424;8.560;2022-10-16T08:16:00;7.05;;;4.38;;
56730;SDS011;42613;47.424;8.560;2022-10-16T08:18:25;7.38;;;3.40;;
56730;SDS011;42613;47.424;8.560;2022-10-16T08:20:57;5.85;;;4.00;;
56730;SDS011;42613;47.424;8.560;2022-10-16T08:23:25;9.40;;;4.63;;
56730;SDS011;42613;47.424;8.560;2022-10-16T08:25:51;3.92;;;3.03;;
56730;SDS011;42613;47.424;8.560;2022-10-16T08:28:18;6.90;;;2.70;;
56730;SDS011;42613;47.424;8.560;2022-10-16T08:30:43;7.93;;;2.53;;
56730;SDS011;42613;47.424;8.560;2022-10-16T08:33:09;3.72;;;2.60;;
56730;SDS011;42613;47.424;8.560;2022-10-16T08:35:34;4.05;;;2.72;;
56730;SDS011;42613;47.424;8.560;2022-10-16T08:37:59;3.70;;;2.05;;
56730;SDS011;42613;47.424;8.560;2022-10-16T08:40:26;3.50;;;2.00;;
56730;SDS011;42613;47.424;8.560;2022-10-16T08:48:46;4.28;;;1.80;;
56730;SDS011;42613;47.424;8.560;2022-10-16T08:51:22;4.75;;;1.85;;
56730;SDS011;42613;47.424;8.560;2022-10-16T08:54:02;4.93;;;1.75;;
56730;SDS011;42613;47.424;8.560;2022-10-16T08:56:30;7.93;;;2.17;;
56730;SDS011;42613;47.424;8.560;2022-10-16T08:58:57;3.65;;;1.92;;
56730;SDS011;42613;47.424;8.560;2022-10-16T09:01:23;2.05;;;1.85;;
56730;SDS011;42613;47.424;8.560;2022-10-16T09:06:52;2.05;;;1.60;;
56730;SDS011;42613;47.424;8.560;2022-10-16T09:23:37;4.13;;;1.30;;
56730;SDS011;42613;47.424;8.560;2022-10-16T09:26:09;3.65;;;1.38;;
56730;SDS011;42613;47.424;8.560;2022-10-16T09:28:36;4.18;;;1.40;;
56730;SDS011;42613;47.424;8.560;2022-10-16T09:31:01;2.75;;;1.20;;
56730;SDS011;42613;47.424;8.560;2022-10-16T09:33:33;4.60;;;1.30;;
56730;SDS011;42613;47.424;8.560;2022-10-16T09:36:04;3.83;;;1.27;;
56730;SDS011;42613;47.424;8.560;2022-10-16T09:38:35;3.20;;;1.55;;
56730;SDS011;42613;47.424;8.560;2022-10-16T09:41:19;7.60;;;1.33;;
56730;SDS011;42613;47.424;8.560;2022-10-16T09:44:00;1.33;;;0.90;;
56730;SDS011;42613;47.424;8.560;2022-10-16T09:46:31;6.95;;;1.23;;
56730;SDS011;42613;47.424;8.560;2022-10-16T09:52:24;4.15;;;1.25;;
56730;SDS011;42613;47.424;8.560;2022-10-16T09:54:54;1.88;;;1.00;;
56730;SDS011;42613;47.424;8.560;2022-10-16T09:57:37;1.20;;;1.10;;
56730;SDS011;42613;47.424;8.560;2022-10-16T10:00:04;1.55;;;1.02;;
56730;SDS011;42613;47.424;8.560;2022-10-16T10:02:34;5.10;;;1.30;;
56730;SDS011;42613;47.424;8.560;2022-10-16T10:05:17;3.28;;;1.17;;
56730;SDS011;42613;47.424;8.560;2022-10-16T10:07:58;3.15;;;1.25;;
56730;SDS011;42613;47.424;8.560;2022-10-16T10:10:38;2.53;;;0.93;;
56730;SDS011;42613;47.424;8.560;2022-10-16T10:13:17;3.38;;;0.95;;
56730;SDS011;42613;47.424;8.560;2022-10-16T10:15:46;2.97;;;1.17;;
56730;SDS011;42613;47.424;8.560;2022-10-16T10:18:16;1.50;;;1.17;;
56730;SDS011;42613;47.424;8.560;2022-10-16T10:20:44;5.20;;;1.40;;
56730;SDS011;42613;47.424;8.560;2022-10-16T10:23:29;3.25;;;1.23;;
56730;SDS011;42613;47.424;8.560;2022-10-16T10:26:05;10.27;;;1.58;;
56730;SDS011;42613;47.424;8.560;2022-10-16T10:31:46;5.80;;;1.13;;
56730;SDS011;42613;47.424;8.560;2022-10-16T10:34:54;2.20;;;1.02;;
56730;SDS011;42613;47.424;8.560;2022-10-16T10:37:37;4.60;;;0.90;;
56730;SDS011;42613;47.424;8.560;2022-10-16T10:40:42;4.38;;;1.00;;
56730;SDS011;42613;47.424;8.560;2022-10-16T10:46:18;0.90;;;0.70;;
56730;SDS011;42613;47.424;8.560;2022-10-16T10:49:11;2.60;;;0.70;;
56730;SDS011;42613;47.424;8.560;2022-10-16T10:52:07;2.55;;;0.85;;
56730;SDS011;42613;47.424;8.560;2022-10-16T11:01:25;2.55;;;1.40;;
56730;SDS011;42613;47.424;8.560;2022-10-16T11:04:37;7.27;;;1.30;;
56730;SDS011;42613;47.424;8.560;2022-10-16T11:08:14;2.50;;;0.90;;
56730;SDS011;42613;47.424;8.560;2022-10-16T11:17:13;1.88;;;0.90;;
56730;SDS011;42613;47.424;8.560;2022-10-16T11:30:40;4.38;;;1.08;;
56730;SDS011;42613;47.424;8.560;2022-10-16T11:48:24;0.90;;;0.70;;
56730;SDS011;42613;47.424;8.560;2022-10-16T12:18:47;1.80;;;0.60;;
56730;SDS011;42613;47.424;8.560;2022-10-16T12:21:14;2.78;;;0.70;;
56730;SDS011;42613;47.424;8.560;2022-10-16T12:23:56;0.68;;;0.60;;
56730;SDS011;42613;47.424;8.560;2022-10-16T12:29:30;0.65;;;0.63;;
56730;SDS011;42613;47.424;8.560;2022-10-16T12:32:26;5.35;;;0.60;;
56730;SDS011;42613;47.424;8.560;2022-10-16T12:35:04;0.95;;;0.60;;
56730;SDS011;42613;47.424;8.560;2022-10-16T12:48:27;3.17;;;0.60;;
56730;SDS011;42613;47.424;8.560;2022-10-16T12:58:38;1.27;;;0.50;;
56730;SDS011;42613;47.424;8.560;2022-10-16T13:26:27;0.40;;;0.40;;
56730;SDS011;42613;47.424;8.560;2022-10-16T13:29:08;5.18;;;0.47;;
56730;SDS011;42613;47.424;8.560;2022-10-16T13:45:59;2.15;;;0.40;;
56730;SDS011;42613;47.424;8.560;2022-10-16T13:52:15;2.80;;;0.38;;
56730;SDS011;42613;47.424;8.560;2022-10-16T13:55:02;1.10;;;0.40;;
56730;SDS011;42613;47.424;8.560;2022-10-16T14:01:04;3.55;;;0.60;;
56730;SDS011;42613;47.424;8.560;2022-10-16T14:11:36;1.60;;;0.47;;
56730;SDS011;42613;47.424;8.560;2022-10-16T14:28:46;3.80;;;0.77;;
56730;SDS011;42613;47.424;8.560;2022-10-16T14:31:34;1.00;;;0.50;;
56730;SDS011;42613;47.424;8.560;2022-10-16T14:34:38;1.15;;;0.60;;
56730;SDS011;42613;47.424;8.560;2022-10-16T14:37:30;2.42;;;0.60;;
56730;SDS011;42613;47.424;8.560;2022-10-16T14:46:20;2.88;;;0.60;;
56730;SDS011;42613;47.424;8.560;2022-10-16T14:49:12;5.05;;;0.90;;
56730;SDS011;42613;47.424;8.560;2022-10-16T14:54:18;1.73;;;0.68;;
56730;SDS011;42613;47.424;8.560;2022-10-16T14:56:46;1.15;;;0.80;;
56730;SDS011;42613;47.424;8.560;2022-10-16T15:02:16;3.80;;;0.82;;
56730;SDS011;42613;47.424;8.560;2022-10-16T15:04:52;2.80;;;0.68;;
56730;SDS011;42613;47.424;8.560;2022-10-16T15:07:18;5.47;;;0.80;;
56730;SDS011;42613;47.424;8.560;2022-10-16T15:09:43;6.35;;;1.10;;
56730;SDS011;42613;47.424;8.560;2022-10-16T15:12:08;3.15;;;0.75;;
56730;SDS011;42613;47.424;8.560;2022-10-16T15:14:34;3.28;;;0.70;;
56730;SDS011;42613;47.424;8.560;2022-10-16T15:17:02;3.55;;;0.80;;
56730;SDS011;42613;47.424;8.560;2022-10-16T15:19:30;2.38;;;1.17;;
56730;SDS011;42613;47.424;8.560;2022-10-16T15:21:56;1.17;;;0.73;;
56730;SDS011;42613;47.424;8.560;2022-10-16T15:24:29;3.13;;;0.80;;
56730;SDS011;42613;47.424;8.560;2022-10-16T15:26:57;3.22;;;0.90;;
56730;SDS011;42613;47.424;8.560;2022-10-16T15:29:22;3.45;;;0.80;;
56730;SDS011;42613;47.424;8.560;2022-10-16T15:31:48;1.60;;;0.90;;
56730;SDS011;42613;47.424;8.560;2022-10-16T15:34:14;2.20;;;1.08;;
56730;SDS011;42613;47.424;8.560;2022-10-16T15:36:40;2.85;;;0.90;;
56730;SDS011;42613;47.424;8.560;2022-10-16T15:39:10;2.05;;;0.80;;
56730;SDS011;42613;47.424;8.560;2022-10-16T15:41:41;1.83;;;0.75;;
56730;SDS011;42613;47.424;8.560;2022-10-16T15:44:07;2.85;;;0.70;;
56730;SDS011;42613;47.424;8.560;2022-10-16T15:46:33;1.25;;;0.70;;
56730;SDS011;42613;47.424;8.560;2022-10-16T15:48:59;1.65;;;1.15;;
56730;SDS011;42613;47.424;8.560;2022-10-16T15:51:46;2.38;;;0.88;;
56730;SDS011;42613;47.424;8.560;2022-10-16T15:54:13;4.00;;;1.08;;
56730;SDS011;42613;47.424;8.560;2022-10-16T15:56:38;2.20;;;0.65;;
56730;SDS011;42613;47.424;8.560;2022-10-16T15:59:04;1.67;;;1.00;;
56730;SDS011;42613;47.424;8.560;2022-10-16T16:01:35;2.60;;;0.60;;
56730;SDS011;42613;47.424;8.560;2022-10-16T16:04:06;10.00;;;0.95;;
56730;SDS011;42613;47.424;8.560;2022-10-16T16:06:37;2.40;;;0.85;;
56730;SDS011;42613;47.424;8.560;2022-10-16T16:09:04;2.80;;;1.13;;
56730;SDS011;42613;47.424;8.560;2022-10-16T16:11:29;1.30;;;0.80;;
56730;SDS011;42613;47.424;8.560;2022-10-16T16:14:06;1.73;;;0.90;;
56730;SDS011;42613;47.424;8.560;2022-10-16T16:16:32;3.60;;;0.88;;
56730;SDS011;42613;47.424;8.560;2022-10-16T16:19:02;3.08;;;0.80;;
56730;SDS011;42613;47.424;8.560;2022-10-16T16:21:30;2.83;;;1.00;;
56730;SDS011;42613;47.424;8.560;2022-10-16T16:23:59;3.90;;;1.40;;
56730;SDS011;42613;47.424;8.560;2022-10-16T16:26:32;4.63;;;1.27;;
56730;SDS011;42613;47.424;8.560;2022-10-16T16:29:02;2.85;;;1.30;;
56730;SDS011;42613;47.424;8.560;2022-10-16T16:31:32;1.67;;;1.02;;
56730;SDS011;42613;47.424;8.560;2022-10-16T16:33:58;5.35;;;1.60;;
56730;SDS011;42613;47.424;8.560;2022-10-16T16:36:24;6.95;;;1.95;;
56730;SDS011;42613;47.424;8.560;2022-10-16T16:38:52;2.92;;;1.42;;
56730;SDS011;42613;47.424;8.560;2022-10-16T16:41:19;1.42;;;1.33;;
56730;SDS011;42613;47.424;8.560;2022-10-16T16:43:46;17.75;;;2.88;;
56730;SDS011;42613;47.424;8.560;2022-10-16T16:46:12;3.97;;;1.90;;
56730;SDS011;42613;47.424;8.560;2022-10-16T16:48:39;5.38;;;1.90;;
56730;SDS011;42613;47.424;8.560;2022-10-16T16:51:05;4.30;;;2.38;;
56730;SDS011;42613;47.424;8.560;2022-10-16T16:53:43;5.25;;;2.17;;
56730;SDS011;42613;47.424;8.560;2022-10-16T16:56:09;9.32;;;2.08;;
56730;SDS011;42613;47.424;8.560;2022-10-16T16:58:35;2.83;;;2.30;;
56730;SDS011;42613;47.424;8.560;2022-10-16T17:01:03;2.47;;;2.15;;
56730;SDS011;42613;47.424;8.560;2022-10-16T17:03:30;7.20;;;1.85;;
56730;SDS011;42613;47.424;8.560;2022-10-16T17:06:02;3.90;;;2.17;;
56730;SDS011;42613;47.424;8.560;2022-10-16T17:08:30;14.25;;;6.78;;
56730;SDS011;42613;47.424;8.560;2022-10-16T17:10:58;7.20;;;3.83;;
56730;SDS011;42613;47.424;8.560;2022-10-16T17:13:24;6.20;;;3.33;;
56730;SDS011;42613;47.424;8.560;2022-10-16T17:15:50;9.15;;;3.95;;
56730;SDS011;42613;47.424;8.560;2022-10-16T17:18:17;10.15;;;4.18;;
56730;SDS011;42613;47.424;8.560;2022-10-16T17:20:43;6.68;;;3.75;;
56730;SDS011;42613;47.424;8.560;2022-10-16T17:23:09;7.60;;;4.18;;
56730;SDS011;42613;47.424;8.560;2022-10-16T17:25:36;8.82;;;3.60;;
56730;SDS011;42613;47.424;8.560;2022-10-16T17:28:04;11.38;;;4.15;;
56730;SDS011;42613;47.424;8.560;2022-10-16T17:30:31;4.65;;;3.15;;
56730;SDS011;42613;47.424;8.560;2022-10-16T17:32:59;9.90;;;3.45;;
56730;SDS011;42613;47.424;8.560;2022-10-16T17:35:25;8.95;;;3.75;;
56730;SDS011;42613;47.424;8.560;2022-10-16T17:37:51;4.47;;;3.33;;
56730;SDS011;42613;47.424;8.560;2022-10-16T17:40:19;6.00;;;2.38;;
56730;SDS011;42613;47.424;8.560;2022-10-16T17:42:45;5.95;;;2.33;;
56730;SDS011;42613;47.424;8.560;2022-10-16T17:45:12;4.93;;;2.47;;
56730;SDS011;42613;47.424;8.560;2022-10-16T17:47:38;12.73;;;2.03;;
56730;SDS011;42613;47.424;8.560;2022-10-16T17:50:05;3.25;;;2.08;;
56730;SDS011;42613;47.424;8.560;2022-10-16T17:52:31;4.38;;;2.00;;
56730;SDS011;42613;47.424;8.560;2022-10-16T17:54:57;9.50;;;2.35;;
56730;SDS011;42613;47.424;8.560;2022-10-16T17:57:23;4.60;;;2.05;;
56730;SDS011;42613;47.424;8.560;2022-10-16T17:59:48;3.47;;;2.17;;
56730;SDS011;42613;47.424;8.560;2022-10-16T18:02:14;8.40;;;2.72;;
56730;SDS011;42613;47.424;8.560;2022-10-16T18:04:41;5.95;;;2.20;;
56730;SDS011;42613;47.424;8.560;2022-10-16T18:07:09;2.10;;;1.50;;
56730;SDS011;42613;47.424;8.560;2022-10-16T18:09:36;16.08;;;2.03;;
56730;SDS011;42613;47.424;8.560;2022-10-16T18:12:01;11.60;;;3.25;;
56730;SDS011;42613;47.424;8.560;2022-10-16T18:14:33;8.10;;;2.80;;
56730;SDS011;42613;47.424;8.560;2022-10-16T18:17:02;4.53;;;2.10;;
56730;SDS011;42613;47.424;8.560;2022-10-16T18:19:27;8.43;;;2.50;;
56730;SDS011;42613;47.424;8.560;2022-10-16T18:22:00;2.95;;;2.00;;
56730;SDS011;42613;47.424;8.560;2022-10-16T18:24:26;7.60;;;2.00;;
56730;SDS011;42613;47.424;8.560;2022-10-16T18:26:52;4.50;;;2.20;;
56730;SDS011;42613;47.424;8.560;2022-10-16T18:29:22;4.80;;;2.47;;
56730;SDS011;42613;47.424;8.560;2022-10-16T18:31:49;8.40;;;2.50;;
56730;SDS011;42613;47.424;8.560;2022-10-16T18:34:14;4.47;;;2.20;;
56730;SDS011;42613;47.424;8.560;2022-10-16T18:36:40;7.53;;;2.63;;
56730;SDS011;42613;47.424;8.560;2022-10-16T18:39:10;11.43;;;2.95;;
56730;SDS011;42613;47.424;8.560;2022-10-16T18:41:44;8.00;;;2.63;;
56730;SDS011;42613;47.424;8.560;2022-10-16T18:44:11;11.48;;;2.58;;